Terminal Aerodrome Forecast
Issued by NWS La Crosse, WI

Home | Current Version | Previous Version | Text Only | Print | Product List | Glossary On
Versions: 1 2 3 4 5 6 7 8 9 10 11 12 13 14 15 16 17 18 19 20 21 22 23 24
000
FTUS43 KARX 031127
TAFLSE
TAF
KLSE 031127Z 0312/0412 17010KT P6SM SCT070 BKN250
     FM031600 20013G23KT P6SM SCT070
     FM040100 30008KT P6SM -RA VCTS BKN050CB
      TEMPO 0402/0405 33025G35KT 1SM +TSRA OVC015CB
     FM040500 35007KT P6SM BKN050=

USA.gov is the U.S. government's official web portal to all federal, state and local government web resources and services.